Skip Navigation Linkwww.weather.gov 
NOAA logo - Select to go to the NOAA homepage National Weather Service
 Headquarters Office   NWS logo
NWS Office of the Chief Information Officer/Telecommunication Operations Center
 
   

Current Weather Conditions:
Las Americas, Dominican Republic

(MDSD) 18-26N 069-40W

Conditions at

2017.08.17 2100 UTC
Wind Calm
Visibility 3 mile(s)
Sky conditions overcast
Weather Rain with thunder
Cumulonimbus clouds observed
Temperature 75 F (24 C)
Dew Point 73 F (23 C)
Relative Humidity 94%
Pressure (altimeter) 29.88 in. Hg (1012 hPa)
ob MDSD 172100Z 03010KT 5000 TSRA FEW010CB BKN012 OVC070 24/23 Q1012 CB/NE/E/SE/S/NW/N METAR MDLR 172100Z 00000KT 8000 -RA FEW016CB SCT018 BKN070 26/26 Q1013 CB/NE/E

24 Hour Summary

Time
EDT (UTC)
Temperature
F (C)
Dew Point
F (C)
Pressure
Inches (hPa)
Wind
MPH
Weather
Latest 5 PM (21) Aug 17 75 (24) 73 (23) 29.88 (1012) Calm rain with thunder
4 PM (20) Aug 17 77 (25) 77 (25) 29.88 (1012) NNE 12 light rain
3 PM (19) Aug 17 78 (26) 77 (25) 29.91 (1013) NNE 7 light rain
2 PM (18) Aug 17 78 (26) 77 (25) 29.91 (1013) NNE 9 light rain
1 PM (17) Aug 17 78 (26) 77 (25) 29.91 (1013) NNE 5
Noon (16) Aug 17 78 (26) 77 (25) 29.94 (1014) NNE 9 heavy rain
11 AM (15) Aug 17 80 (27) 77 (25) 29.94 (1014) N 9 light rain
10 AM (14) Aug 17 82 (28) 73 (23) 29.94 (1014) N 12
9 AM (13) Aug 17 80 (27) 77 (25) 29.94 (1014) N 9 light drizzle
8 AM (12) Aug 17 77 (25) 75 (24) 29.91 (1013) N 9 thunder
7 AM (11) Aug 17 77 (25) 75 (24) 29.91 (1013) N 9 thunder
6 AM (10) Aug 17 77 (25) 75 (24) 29.91 (1013) N 7
5 AM (9) Aug 17 75 (24) 73 (23) 29.91 (1013) N 6
4 AM (8) Aug 17 77 (25) 73 (23) 29.88 (1012) N 6
3 AM (7) Aug 17 77 (25) 73 (23) 29.91 (1013) N 7
2 AM (6) Aug 17 77 (25) 73 (23) 29.91 (1013) N 10
1 AM (5) Aug 17 75 (24) 73 (23) 29.94 (1014) NNW 10
Midnight (4) Aug 17 77 (25) 73 (23) 29.97 (1015) N 6 thunder
11 PM (3) Aug 16 77 (25) 73 (23) 29.97 (1015) ENE 16 rain with thunder
10 PM (2) Aug 16 80 (27) 77 (25) 30.00 (1016) ENE 7 light rain with thunder
9 PM (1) Aug 16 82 (28) 75 (24) 29.94 (1014) NNE 6
8 PM (0) Aug 16 84 (29) 75 (24) 29.91 (1013) NNE 10
7 PM (23) Aug 16 86 (30) 75 (24) 29.91 (1013) NE 9
Oldest 6 PM (22) Aug 16 87 (31) 77 (25) 29.91 (1013) NNE 17
Time
EDT (UTC)
Temperature
F(C)
Dew Point
F(C)
Pressure
Inches(hPa)
Wind
(MPH)
Weather

The information presented here is taken from products produced by the U.S. National Weather Service and other national and international agencies




US Dept of Commerce
National Oceanic and Atmospheric Administration
National Weather Service
1325 East West Highway
Silver Spring, MD 20910
Page Author: NWS Internet Services Team
Disclaimer
Feedback
Privacy Notice
Credits